Terminal Aerodrome Forecast
Issued by NWS Mobile, AL

Home | Current Version | Previous Version | Text Only | Print | Product List | Glossary On
Versions: 1 2 3 4 5 6 7 8 9 10 11 12 13 14 15 16 17 18 19 20 21 22 23 24 25 26 27 28 29
000
FTUS44 KMOB 300533
TAFPNS
TAF
KPNS 300533Z 3006/3106 17008KT P6SM SCT025 BKN040
      TEMPO 3006/3010 BKN025
     FM301000 20006KT 5SM BR SCT025 BKN040
     FM301500 24013G20KT P6SM VCSH SCT025 BKN040=

USA.gov is the U.S. government's official web portal to all federal, state and local government web resources and services.